createdAt,value
2018-11-05T00:00:40.533Z,103.70
2018-11-05T00:03:09.231Z,105.23
2018-11-05T00:05:37.924Z,105.17
2018-11-05T00:08:06.646Z,106.67
2018-11-05T00:10:35.327Z,100.13
2018-11-05T00:13:04.048Z,91.87
2018-11-05T00:15:32.828Z,91.57
2018-11-05T00:18:01.465Z,90.10
2018-11-05T00:20:30.370Z,78.53
2018-11-05T00:22:59.000Z,78.13
2018-11-05T00:25:28.619Z,80.00
2018-11-05T00:27:57.439Z,81.93
2018-11-05T00:30:26.244Z,82.23
2018-11-05T00:32:54.928Z,79.27
2018-11-05T00:35:23.576Z,79.37
2018-11-05T00:37:52.306Z,81.37
2018-11-05T00:40:21.059Z,76.20
2018-11-05T00:42:49.703Z,81.73
2018-11-05T00:45:18.344Z,77.90
2018-11-05T00:47:47.032Z,72.57
2018-11-05T00:50:16.522Z,78.27
2018-11-05T00:52:45.165Z,79.30
2018-11-05T00:55:14.207Z,76.93
2018-11-05T00:57:43.085Z,75.47
2018-11-05T01:00:14.611Z,75.13
2018-11-05T01:02:43.459Z,74.83
2018-11-05T01:05:13.536Z,73.27
2018-11-05T01:07:43.205Z,70.97
2018-11-05T01:10:13.070Z,73.30
2018-11-05T01:12:41.835Z,77.23
2018-11-05T01:15:14.324Z,70.27
2018-11-05T01:17:43.212Z,69.47
2018-11-05T01:20:13.156Z,74.10
2018-11-05T01:22:41.934Z,73.27
2018-11-05T01:25:10.901Z,66.50
2018-11-05T01:27:39.595Z,71.13
2018-11-05T01:30:11.952Z,77.30
2018-11-05T01:32:40.957Z,73.90
2018-11-05T01:35:11.471Z,71.53
2018-11-05T01:37:40.127Z,83.17
2018-11-05T01:40:11.245Z,71.10
2018-11-05T01:42:39.888Z,73.00
2018-11-05T01:45:10.458Z,70.80
2018-11-05T01:47:39.400Z,69.20
2018-11-05T01:50:09.751Z,82.57
2018-11-05T01:52:38.415Z,76.93
2018-11-05T01:55:07.837Z,70.00
2018-11-05T01:57:36.535Z,75.00
2018-11-05T02:00:07.992Z,77.00
2018-11-05T02:02:36.748Z,63.67
2018-11-05T02:05:05.789Z,68.70
2018-11-05T02:07:34.387Z,65.43
2018-11-05T02:10:03.240Z,70.97
2018-11-05T02:12:31.862Z,64.63
2018-11-05T02:15:00.545Z,62.20
2018-11-05T02:17:29.317Z,68.07
2018-11-05T02:19:57.925Z,66.70
2018-11-05T02:22:26.656Z,71.63
2018-11-05T02:24:55.534Z,64.47
2018-11-05T02:27:24.307Z,62.43
2018-11-05T02:29:53.008Z,63.60
2018-11-05T02:32:21.791Z,77.10
2018-11-05T02:34:50.448Z,65.90
2018-11-05T02:37:19.129Z,67.30
2018-11-05T02:39:47.975Z,61.37
2018-11-05T02:42:16.732Z,65.13
2018-11-05T02:44:45.405Z,67.03
2018-11-05T02:47:14.204Z,68.17
2018-11-05T02:49:42.863Z,71.10
2018-11-05T02:52:11.537Z,64.83
2018-11-05T02:54:40.132Z,72.07
2018-11-05T02:57:09.024Z,63.80
2018-11-05T02:59:37.744Z,66.63
2018-11-05T03:02:06.475Z,66.83
2018-11-05T03:04:35.128Z,68.60
2018-11-05T03:07:03.885Z,63.43
2018-11-05T03:09:32.522Z,57.30
2018-11-05T03:12:01.127Z,61.87
2018-11-05T03:14:29.800Z,56.83
2018-11-05T03:16:58.530Z,57.00
2018-11-05T03:19:27.193Z,67.93
2018-11-05T03:21:55.885Z,65.07
2018-11-05T03:24:24.558Z,61.47
2018-11-05T03:26:53.288Z,59.93
2018-11-05T03:29:21.941Z,65.90
2018-11-05T03:31:50.726Z,65.07
2018-11-05T03:34:19.385Z,62.00
2018-11-05T03:36:48.020Z,58.00
2018-11-05T03:39:16.664Z,60.33
2018-11-05T03:41:45.366Z,59.77
2018-11-05T03:44:14.021Z,56.07
2018-11-05T03:46:42.671Z,57.90
2018-11-05T03:49:11.435Z,62.07
2018-11-05T03:51:40.103Z,56.50
2018-11-05T03:54:09.020Z,58.73
2018-11-05T03:56:37.802Z,59.23
2018-11-05T03:59:06.337Z,56.50
2018-11-05T04:01:34.961Z,62.77
2018-11-05T04:04:03.636Z,68.53
2018-11-05T04:06:32.288Z,62.93
2018-11-05T04:09:00.888Z,61.60
2018-11-05T04:11:29.701Z,62.13
2018-11-05T04:13:58.348Z,63.13
2018-11-05T04:16:27.078Z,61.77
2018-11-05T04:18:55.993Z,68.13
2018-11-05T04:21:28.843Z,62.97
2018-11-05T04:23:57.501Z,69.10
2018-11-05T04:26:26.185Z,68.50
2018-11-05T04:28:55.015Z,67.97
2018-11-05T04:31:23.639Z,63.30
2018-11-05T04:33:52.373Z,63.20
2018-11-05T04:36:21.022Z,69.27
2018-11-05T04:38:49.837Z,65.47
2018-11-05T04:41:18.569Z,62.27
2018-11-05T04:43:47.175Z,64.87
2018-11-05T04:46:15.775Z,69.30
2018-11-05T04:48:44.501Z,65.40
2018-11-05T04:51:13.129Z,61.80
2018-11-05T04:53:41.961Z,66.40
2018-11-05T04:56:10.612Z,64.97
2018-11-05T04:58:39.320Z,61.30
2018-11-05T05:01:08.020Z,59.90
2018-11-05T05:03:36.671Z,65.83
2018-11-05T05:06:05.728Z,67.07
2018-11-05T05:08:34.362Z,65.40
2018-11-05T05:11:03.048Z,62.90
2018-11-05T05:13:31.699Z,61.60
2018-11-05T05:16:00.462Z,66.90
2018-11-05T05:18:30.236Z,55.77
2018-11-05T05:20:58.899Z,63.83
2018-11-05T05:23:27.579Z,65.07
2018-11-05T05:25:56.407Z,68.87
2018-11-05T05:28:25.032Z,66.73
2018-11-05T05:30:53.789Z,64.87
2018-11-05T05:33:22.514Z,67.80
2018-11-05T05:35:52.250Z,66.90
2018-11-05T05:38:20.940Z,66.50
2018-11-05T05:40:50.330Z,67.60
2018-11-05T05:43:19.112Z,65.37
2018-11-05T05:45:47.802Z,75.47
2018-11-05T05:48:16.484Z,74.63
2018-11-05T05:50:45.899Z,69.77
2018-11-05T05:53:14.689Z,64.30
2018-11-05T05:55:43.831Z,69.60
2018-11-05T05:58:12.556Z,65.17
2018-11-05T06:00:41.385Z,69.20
2018-11-05T06:03:10.026Z,78.00
2018-11-05T06:05:38.762Z,79.17
2018-11-05T06:08:07.512Z,75.33
2018-11-05T06:10:36.185Z,82.83
2018-11-05T06:13:05.312Z,83.23
2018-11-05T06:15:34.152Z,87.20
2018-11-05T06:18:02.864Z,86.00
2018-11-05T06:20:31.647Z,84.70
2018-11-05T06:23:00.358Z,84.70
2018-11-05T06:25:29.285Z,84.60
2018-11-05T06:27:57.919Z,87.67
2018-11-05T06:30:26.613Z,96.27
2018-11-05T06:32:55.425Z,78.67
2018-11-05T06:35:24.107Z,84.73
2018-11-05T06:37:52.733Z,83.87
2018-11-05T06:40:21.490Z,81.00
2018-11-05T06:42:50.432Z,88.37
2018-11-05T06:45:21.544Z,84.87
2018-11-05T06:47:50.456Z,86.30
2018-11-05T06:50:21.267Z,96.00
2018-11-05T06:52:49.879Z,95.77
2018-11-05T06:55:18.599Z,85.83
2018-11-05T06:57:47.357Z,98.87
2018-11-05T07:00:20.248Z,84.10
2018-11-05T07:02:49.149Z,93.97
2018-11-05T07:05:17.851Z,89.50
2018-11-05T07:07:46.460Z,101.90
2018-11-05T07:10:15.834Z,97.87
2018-11-05T07:12:45.004Z,96.20
2018-11-05T07:15:15.062Z,102.23
2018-11-05T07:17:44.827Z,91.30
2018-11-05T07:20:15.082Z,91.67
2018-11-05T07:22:44.243Z,93.63
2018-11-05T07:25:14.092Z,82.07
2018-11-05T07:27:43.028Z,86.67
2018-11-05T07:30:17.102Z,88.30
2018-11-05T07:32:46.369Z,92.30
2018-11-05T07:35:15.563Z,88.07
2018-11-05T07:37:44.239Z,78.17
2018-11-05T07:40:14.621Z,85.50
2018-11-05T07:42:43.243Z,85.13
2018-11-05T07:45:15.582Z,90.13
2018-11-05T07:47:45.131Z,85.50
2018-11-05T07:50:15.044Z,86.80
2018-11-05T07:52:43.749Z,87.57
2018-11-05T07:55:13.780Z,82.90
2018-11-05T07:57:43.557Z,82.40
2018-11-05T08:00:19.747Z,73.53
2018-11-05T08:02:49.883Z,80.30
2018-11-05T08:05:19.763Z,93.97
2018-11-05T08:07:48.740Z,86.13
2018-11-05T08:10:17.527Z,94.63
2018-11-05T08:12:46.413Z,94.27
2018-11-05T08:15:16.955Z,86.87
2018-11-05T08:17:46.864Z,94.53
2018-11-05T08:20:15.687Z,95.57
2018-11-05T08:22:44.345Z,93.83
2018-11-05T08:25:13.936Z,103.77
2018-11-05T08:27:42.990Z,100.30
2018-11-05T08:30:17.461Z,97.87
2018-11-05T08:32:46.115Z,93.87
2018-11-05T08:35:15.141Z,103.27
2018-11-05T08:37:45.036Z,97.57
2018-11-05T08:40:19.168Z,107.60
2018-11-05T08:42:48.967Z,98.50
2018-11-05T08:45:18.985Z,92.20
2018-11-05T08:47:47.655Z,103.77
2018-11-05T08:50:17.756Z,111.77
2018-11-05T08:52:46.581Z,116.77
2018-11-05T08:55:17.932Z,107.00
2018-11-05T08:57:46.780Z,109.60
2018-11-05T09:00:21.952Z,122.60
2018-11-05T09:02:50.995Z,117.80
2018-11-05T09:05:19.806Z,114.63
2018-11-05T09:07:49.224Z,121.67
2018-11-05T09:10:18.344Z,127.50
2018-11-05T09:12:46.900Z,129.80
2018-11-05T09:15:17.159Z,126.63
2018-11-05T09:17:46.379Z,142.50
2018-11-05T09:20:16.230Z,134.13
2018-11-05T09:22:45.135Z,138.60
2018-11-05T09:25:14.730Z,123.30
2018-11-05T09:27:43.496Z,120.53
2018-11-05T09:30:15.757Z,93.00
2018-11-05T09:32:45.235Z,124.93
2018-11-05T09:35:13.919Z,137.30
2018-11-05T09:37:42.524Z,131.70
2018-11-05T09:40:14.807Z,131.83
2018-11-05T09:42:44.401Z,133.73
2018-11-05T09:45:15.870Z,110.20
2018-11-05T09:47:45.388Z,127.77
2018-11-05T09:50:14.347Z,132.07
2018-11-05T09:52:43.167Z,144.57
2018-11-05T09:55:12.703Z,137.37
2018-11-05T09:57:41.768Z,145.17
2018-11-05T10:00:15.646Z,150.63
2018-11-05T10:02:49.685Z,140.77
2018-11-05T10:05:18.615Z,141.13
2018-11-05T10:07:47.368Z,147.83
2018-11-05T10:10:16.829Z,157.53
2018-11-05T10:12:45.663Z,147.17
2018-11-05T10:15:15.459Z,150.00
2018-11-05T10:17:44.120Z,135.87
2018-11-05T10:20:18.178Z,135.30
2018-11-05T10:22:47.094Z,139.83
2018-11-05T10:25:16.404Z,147.40
2018-11-05T10:27:45.551Z,146.27
2018-11-05T10:30:16.671Z,116.97
2018-11-05T10:32:45.498Z,127.07
2018-11-05T10:35:15.187Z,139.87
2018-11-05T10:37:44.011Z,150.37
2018-11-05T10:40:15.652Z,145.63
2018-11-05T10:42:45.236Z,160.67
2018-11-05T10:45:15.251Z,149.27
2018-11-05T10:47:44.153Z,138.60
2018-11-05T10:50:13.973Z,146.37
2018-11-05T10:52:43.697Z,150.43
2018-11-05T10:55:12.383Z,140.93
2018-11-05T10:57:41.644Z,146.47
2018-11-05T11:00:18.629Z,146.10
2018-11-05T11:02:52.731Z,153.63
2018-11-05T11:05:21.959Z,146.97
2018-11-05T11:07:51.028Z,152.77
2018-11-05T11:10:19.818Z,149.57
2018-11-05T11:12:48.711Z,148.07
2018-11-05T11:15:17.528Z,149.87
2018-11-05T11:17:46.152Z,154.10
2018-11-05T11:20:15.092Z,155.80
2018-11-05T11:22:43.758Z,146.40
2018-11-05T11:25:12.542Z,145.13
2018-11-05T11:27:41.283Z,148.23
2018-11-05T11:30:12.569Z,150.90
2018-11-05T11:32:41.766Z,140.63
2018-11-05T11:35:11.269Z,145.87
2018-11-05T11:37:40.165Z,143.60
2018-11-05T11:40:14.068Z,142.10
2018-11-05T11:42:43.676Z,139.90
2018-11-05T11:45:13.247Z,149.17
2018-11-05T11:47:42.099Z,157.50
2018-11-05T11:50:12.570Z,167.20
2018-11-05T11:52:41.459Z,170.20
2018-11-05T11:55:12.308Z,163.80
2018-11-05T11:57:41.253Z,163.37
2018-11-05T12:00:13.092Z,174.93
2018-11-05T12:02:42.980Z,164.80
2018-11-05T12:05:11.859Z,156.37
2018-11-05T12:07:40.409Z,164.47
2018-11-05T12:10:11.023Z,163.90
2018-11-05T12:12:39.707Z,164.20
2018-11-05T12:15:09.359Z,157.63
2018-11-05T12:17:38.475Z,169.80
2018-11-05T12:20:09.161Z,172.60
2018-11-05T12:22:37.924Z,179.93
2018-11-05T12:25:07.314Z,185.23
2018-11-05T12:27:36.080Z,192.77
2018-11-05T12:30:05.984Z,193.70
2018-11-05T12:32:34.635Z,190.50
2018-11-05T12:35:03.278Z,184.97
2018-11-05T12:37:32.047Z,183.20
2018-11-05T12:40:01.367Z,178.90
2018-11-05T12:42:29.997Z,188.40
2018-11-05T12:44:58.655Z,190.23
2018-11-05T12:47:27.321Z,195.47
2018-11-05T12:49:55.956Z,194.63
2018-11-05T12:52:24.684Z,190.33
2018-11-05T12:54:53.560Z,190.20
2018-11-05T12:57:22.506Z,184.90
2018-11-05T12:59:51.341Z,189.57
2018-11-05T13:02:24.427Z,198.17
2018-11-05T13:04:54.648Z,197.87
2018-11-05T13:07:23.470Z,191.57
2018-11-05T13:09:52.203Z,191.83
2018-11-05T13:12:21.075Z,187.77
2018-11-05T13:14:49.648Z,205.10
2018-11-05T13:17:18.356Z,191.90
2018-11-05T13:19:47.095Z,203.93
2018-11-05T13:22:15.904Z,204.03
2018-11-05T13:24:44.540Z,183.60
2018-11-05T13:27:13.236Z,177.23
2018-11-05T13:29:41.879Z,188.03
2018-11-05T13:32:10.817Z,197.87
2018-11-05T13:34:39.454Z,192.97
2018-11-05T13:37:08.340Z,185.17
2018-11-05T13:39:36.955Z,179.97
2018-11-05T13:42:05.994Z,176.77
2018-11-05T13:44:34.658Z,177.93
2018-11-05T13:47:04.023Z,175.80
2018-11-05T13:49:32.314Z,177.70
2018-11-05T13:52:01.110Z,171.67
2018-11-05T13:54:29.734Z,193.13
2018-11-05T13:56:58.474Z,191.13
2018-11-05T13:59:27.131Z,179.73
2018-11-05T14:01:56.048Z,174.47
2018-11-05T14:04:24.832Z,167.33
2018-11-05T14:06:53.620Z,157.93
2018-11-05T14:09:22.270Z,170.20
2018-11-05T14:11:51.110Z,157.20
2018-11-05T14:14:19.883Z,141.93
2018-11-05T14:16:48.663Z,132.87
2018-11-05T14:19:17.316Z,137.67
2018-11-05T14:21:45.938Z,125.57
2018-11-05T14:24:14.719Z,129.03
2018-11-05T14:26:43.427Z,135.27
2018-11-05T14:29:12.516Z,136.87
2018-11-05T14:31:40.765Z,139.03
2018-11-05T14:34:09.448Z,134.40
2018-11-05T14:36:38.483Z,141.67
2018-11-05T14:39:11.772Z,128.43
2018-11-05T14:41:40.545Z,133.40
2018-11-05T14:44:09.531Z,135.47
2018-11-05T14:46:38.175Z,126.73
2018-11-05T14:49:09.356Z,133.37
2018-11-05T14:51:38.236Z,126.53
2018-11-05T14:54:06.996Z,133.77
2018-11-05T14:56:36.028Z,127.23
2018-11-05T14:59:05.111Z,132.33
2018-11-05T15:01:34.118Z,130.30
2018-11-05T15:04:02.949Z,138.73
2018-11-05T15:06:31.660Z,133.83
2018-11-05T15:09:00.491Z,135.13
2018-11-05T15:11:29.467Z,142.43
2018-11-05T15:13:58.232Z,149.37
2018-11-05T15:16:27.187Z,140.60
2018-11-05T15:18:56.142Z,147.03
2018-11-05T15:21:24.767Z,153.67
2018-11-05T15:23:53.276Z,149.13
2018-11-05T15:26:22.208Z,148.17
2018-11-05T15:28:51.022Z,143.47
2018-11-05T15:31:19.656Z,143.87
2018-11-05T15:33:48.639Z,141.70
2018-11-05T15:36:17.233Z,148.70
2018-11-05T15:38:57.342Z,135.63
2018-11-05T15:41:25.970Z,151.60
2018-11-05T15:43:54.773Z,156.90
2018-11-05T15:46:23.568Z,152.70
2018-11-05T15:48:52.544Z,152.90
2018-11-05T15:51:21.637Z,155.63
2018-11-05T15:53:50.150Z,151.73
2018-11-05T15:56:19.021Z,164.33
2018-11-05T15:58:47.701Z,144.93
2018-11-05T16:01:16.459Z,145.20
2018-11-05T16:03:45.471Z,156.30
2018-11-05T16:06:14.256Z,154.80
2018-11-05T16:08:42.913Z,150.57
2018-11-05T16:11:11.747Z,161.27
2018-11-05T16:13:40.469Z,154.23
2018-11-05T16:16:09.168Z,140.43
2018-11-05T16:18:37.983Z,166.60
2018-11-05T16:21:06.659Z,170.70
2018-11-05T16:23:35.340Z,162.33
2018-11-05T16:26:04.415Z,156.77
2018-11-05T16:28:32.991Z,169.17
2018-11-05T16:31:01.725Z,172.80
2018-11-05T16:33:30.612Z,175.53
2018-11-05T16:35:59.293Z,176.30
2018-11-05T16:38:28.038Z,168.60
2018-11-05T16:40:56.882Z,173.33
2018-11-05T16:43:25.520Z,169.67
2018-11-05T16:45:54.109Z,178.50
2018-11-05T16:48:22.998Z,185.50
2018-11-05T16:51:15.376Z,194.60
2018-11-05T16:53:44.499Z,178.07
2018-11-05T16:56:13.103Z,203.53
2018-11-05T16:58:41.766Z,195.83
2018-11-05T17:01:10.799Z,171.77
2018-11-05T17:03:39.264Z,174.87
2018-11-05T17:06:07.925Z,171.50
2018-11-05T17:08:36.683Z,185.30
2018-11-05T17:11:05.803Z,201.40
2018-11-05T17:13:34.709Z,190.67
2018-11-05T17:16:03.225Z,191.33
2018-11-05T17:18:32.336Z,193.00
2018-11-05T17:21:00.991Z,196.43
2018-11-05T17:23:29.688Z,204.40
2018-11-05T17:25:58.490Z,210.70
2018-11-05T17:28:28.086Z,214.60
2018-11-05T17:30:56.893Z,188.20
2018-11-05T17:33:26.608Z,204.53
2018-11-05T17:35:55.336Z,197.67
2018-11-05T17:38:24.175Z,242.23
2018-11-05T17:40:52.839Z,223.17
2018-11-05T17:43:21.651Z,238.47
2018-11-05T17:45:50.298Z,226.23
2018-11-05T17:48:18.897Z,200.57
2018-11-05T17:50:47.701Z,374.07
2018-11-05T17:53:16.419Z,258.10
2018-11-05T17:55:45.176Z,325.87
2018-11-05T17:58:13.829Z,375.87
2018-11-05T18:00:42.519Z,442.50
2018-11-05T18:03:11.334Z,1259.17
2018-11-05T18:05:40.057Z,246.63
2018-11-05T18:08:08.761Z,225.03
2018-11-05T18:10:37.461Z,246.07
2018-11-05T18:20:07.695Z,261.50
2018-11-05T18:22:36.645Z,229.40
2018-11-05T18:25:06.476Z,265.77
2018-11-05T18:27:35.340Z,243.73
2018-11-05T18:30:04.250Z,252.70
2018-11-05T18:32:32.880Z,303.73
2018-11-05T18:35:01.691Z,240.33
2018-11-05T18:37:30.500Z,373.83
2018-11-05T18:39:59.275Z,318.00
2018-11-05T18:42:28.404Z,220.23
2018-11-05T18:44:57.486Z,218.10
2018-11-05T18:47:26.191Z,219.13
2018-11-05T18:49:55.217Z,272.60
2018-11-05T18:52:24.104Z,227.80
2018-11-05T18:54:52.704Z,219.07
2018-11-05T18:57:21.607Z,201.13
2018-11-05T18:59:50.290Z,339.07
2018-11-05T19:02:24.480Z,317.63
2018-11-05T19:04:53.075Z,263.53
2018-11-05T19:07:21.793Z,355.53
2018-11-05T19:09:51.383Z,237.83
2018-11-05T19:12:20.040Z,287.30
2018-11-05T19:14:48.972Z,606.73
2018-11-05T19:17:17.855Z,451.93
2018-11-05T19:19:47.572Z,608.93
2018-11-05T19:22:16.419Z,500.97
2018-11-05T19:24:45.236Z,370.87
2018-11-05T19:27:14.020Z,661.90
2018-11-05T19:29:43.029Z,769.07
2018-11-05T19:32:11.710Z,389.67
2018-11-05T19:34:40.350Z,284.30
2018-11-05T19:37:09.479Z,329.67
2018-11-05T19:39:38.139Z,919.77
2018-11-05T19:42:07.007Z,288.23
2018-11-05T19:44:36.267Z,326.17
2018-11-05T19:47:05.147Z,319.23
2018-11-05T19:49:33.949Z,273.53
2018-11-05T19:52:02.600Z,285.77
2018-11-05T19:54:31.421Z,507.87
2018-11-05T19:57:00.613Z,398.87
2018-11-05T19:59:29.235Z,478.30
2018-11-05T20:01:58.176Z,293.10
2018-11-05T20:04:26.906Z,1180.00
2018-11-05T20:06:55.661Z,398.57
2018-11-05T20:09:24.307Z,495.97
2018-11-05T20:11:53.004Z,666.93
2018-11-05T20:14:21.805Z,349.47
2018-11-05T20:16:50.499Z,403.63
2018-11-05T20:19:19.267Z,284.83
2018-11-05T20:21:47.962Z,481.10
2018-11-05T20:24:16.631Z,413.70
2018-11-05T20:26:45.409Z,643.20
2018-11-05T20:29:14.132Z,1086.07
2018-11-05T20:31:43.226Z,1048.53
2018-11-05T20:34:11.898Z,822.63
2018-11-05T20:36:40.392Z,1095.47
2018-11-05T20:39:10.512Z,661.77
2018-11-05T20:41:39.296Z,472.87
2018-11-05T20:44:08.001Z,381.57
2018-11-05T20:46:38.607Z,253.17
2018-11-05T20:49:07.592Z,236.37
2018-11-05T20:51:36.271Z,266.77
2018-11-05T20:54:05.304Z,273.63
2018-11-05T20:56:33.958Z,299.10
2018-11-05T20:59:02.655Z,254.10
2018-11-05T21:01:31.489Z,222.50
2018-11-05T21:04:00.402Z,216.53
2018-11-05T21:06:29.237Z,234.80
2018-11-05T21:08:57.855Z,235.20
2018-11-05T21:11:26.591Z,384.93
2018-11-05T21:13:55.469Z,180.80
2018-11-05T21:16:24.257Z,208.30
2018-11-05T21:18:53.260Z,221.23
2018-11-05T21:21:21.972Z,342.03
2018-11-05T21:23:50.733Z,398.77
2018-11-05T21:26:19.369Z,556.00
2018-11-05T21:28:48.300Z,317.67
2018-11-05T21:31:16.957Z,298.47
2018-11-05T21:33:45.867Z,501.57
2018-11-05T21:36:14.669Z,307.03
2018-11-05T21:38:43.317Z,301.90
2018-11-05T21:41:12.312Z,317.53
2018-11-05T21:43:41.238Z,270.70
2018-11-05T21:46:10.636Z,358.13
2018-11-05T21:48:39.431Z,270.33
2018-11-05T21:51:08.296Z,249.43
2018-11-05T21:53:37.300Z,236.67
2018-11-05T21:56:06.493Z,247.67
2018-11-05T21:58:35.500Z,239.17
2018-11-05T22:01:04.595Z,246.17
2018-11-05T22:03:33.380Z,271.63
2018-11-05T22:06:02.023Z,314.60
2018-11-05T22:08:30.840Z,200.10
2018-11-05T22:10:59.603Z,187.10
2018-11-05T22:13:28.468Z,167.67
2018-11-05T22:15:57.313Z,166.43
2018-11-05T22:18:26.040Z,173.13
2018-11-05T22:20:54.857Z,178.20
2018-11-05T22:23:23.679Z,190.90
2018-11-05T22:25:52.467Z,173.80
2018-11-05T22:28:21.169Z,206.37
2018-11-05T22:30:50.043Z,172.40
2018-11-05T22:33:18.813Z,168.87
2018-11-05T22:35:47.459Z,196.83
2018-11-05T22:38:16.146Z,176.03
2018-11-05T22:40:44.919Z,189.17
2018-11-05T22:43:13.570Z,189.77
2018-11-05T22:45:42.264Z,195.93
2018-11-05T22:48:10.936Z,211.30
2018-11-05T22:50:39.640Z,192.53
2018-11-05T22:53:08.495Z,204.10
2018-11-05T22:55:37.183Z,288.87
2018-11-05T22:58:06.636Z,197.70
2018-11-05T23:00:40.796Z,234.73
2018-11-05T23:03:14.913Z,197.20
2018-11-05T23:05:43.592Z,205.43
2018-11-05T23:08:12.380Z,350.63
2018-11-05T23:10:41.170Z,164.57
2018-11-05T23:13:09.816Z,186.50
2018-11-05T23:15:38.565Z,239.23
2018-11-05T23:18:07.569Z,238.97
2018-11-05T23:20:36.217Z,221.30
2018-11-05T23:23:04.919Z,193.57
2018-11-05T23:32:38.854Z,374.10
2018-11-05T23:35:08.472Z,682.37
2018-11-05T23:37:38.072Z,256.77
2018-11-05T23:40:07.467Z,162.40
2018-11-05T23:42:36.822Z,136.23
2018-11-05T23:45:07.500Z,149.00
2018-11-05T23:47:36.204Z,144.03
2018-11-05T23:50:05.744Z,134.17
2018-11-05T23:52:34.475Z,139.30
2018-11-05T23:55:03.180Z,133.67
2018-11-05T23:57:31.956Z,128.83
